Time,TemperatureF,DewpointF,PressureIn,WindDirection,WindDirectionDegrees,WindSpeedMPH,WindSpeedGustMPH,Humidity,HourlyPrecipIn,Conditions,Clouds,dailyrainin,SolarRadiationWatts/m^2,SoftwareType,DateUTC
2013-08-03 00:02:00,70.5,65.0,29.95,WSW,252,0.0,0.0,83,0.00,,,0.00,0,weatherlink.com 1.10,2013-08-03 04:02:00,
2013-08-03 00:17:00,70.7,65.0,29.94,South,191,0.0,0.0,82,0.00,,,0.00,0,weatherlink.com 1.10,2013-08-03 04:17:00,
2013-08-03 00:32:00,70.7,65.0,29.94,WSW,250,0.0,0.0,82,0.00,,,0.00,0,weatherlink.com 1.10,2013-08-03 04:32:00,
2013-08-03 00:47:00,70.7,65.0,29.94,SW,235,0.0,0.0,82,0.00,,,0.00,0,weatherlink.com 1.10,2013-08-03 04:47:00,
2013-08-03 01:02:00,70.5,65.0,29.95,SW,235,0.0,0.0,83,0.00,,,0.00,0,weatherlink.com 1.10,2013-08-03 05:02:00,
2013-08-03 01:17:00,70.2,65.0,29.95,SW,235,0.0,0.0,83,0.00,,,0.00,0,weatherlink.com 1.10,2013-08-03 05:17:00,
2013-08-03 01:32:00,70.4,65.0,29.95,WSW,248,0.0,0.0,83,0.00,,,0.00,0,weatherlink.com 1.10,2013-08-03 05:32:00,
2013-08-03 01:47:00,70.4,65.0,29.95,WSW,248,0.0,0.0,83,0.00,,,0.00,0,weatherlink.com 1.10,2013-08-03 05:47:00,
2013-08-03 02:02:00,70.5,65.0,29.95,SSW,210,0.0,0.0,83,0.00,,,0.00,0,weatherlink.com 1.10,2013-08-03 06:02:00,
2013-08-03 02:17:00,70.6,65.0,29.94,SW,217,0.0,0.0,83,0.00,,,0.00,0,weatherlink.com 1.10,2013-08-03 06:17:00,
2013-08-03 02:32:00,70.5,65.0,29.94,SW,225,0.0,0.0,83,0.00,,,0.00,0,weatherlink.com 1.10,2013-08-03 06:32:00,
2013-08-03 02:47:00,70.2,65.0,29.93,SW,222,0.0,0.0,84,0.00,,,0.00,0,weatherlink.com 1.10,2013-08-03 06:47:00,
2013-08-03 03:02:00,70.1,65.0,29.93,WSW,242,0.0,0.0,84,0.00,,,0.00,0,weatherlink.com 1.10,2013-08-03 07:02:00,
2013-08-03 03:17:00,70.0,65.0,29.93,WSW,257,0.0,0.0,85,0.00,,,0.00,0,weatherlink.com 1.10,2013-08-03 07:17:00,
2013-08-03 03:32:00,69.9,65.0,29.93,WSW,238,0.0,0.0,85,0.00,,,0.00,0,weatherlink.com 1.10,2013-08-03 07:32:00,
2013-08-03 03:47:00,69.7,65.0,29.93,SSW,211,0.0,0.0,86,0.00,,,0.00,0,weatherlink.com 1.10,2013-08-03 07:47:00,
2013-08-03 04:02:00,69.6,66.0,29.93,SSW,212,0.0,0.0,87,0.00,,,0.00,0,weatherlink.com 1.10,2013-08-03 08:02:00,
2013-08-03 04:17:00,69.4,65.0,29.93,SSW,212,0.0,0.0,87,0.00,,,0.00,0,weatherlink.com 1.10,2013-08-03 08:17:00,
2013-08-03 04:32:00,69.2,66.0,29.93,SSW,212,0.0,0.0,88,0.00,,,0.00,0,weatherlink.com 1.10,2013-08-03 08:32:00,
2013-08-03 04:47:00,68.9,66.0,29.93,SSW,212,0.0,0.0,89,0.00,,,0.00,0,weatherlink.com 1.10,2013-08-03 08:47:00,
2013-08-03 05:02:00,68.7,65.0,29.93,SSW,212,0.0,0.0,89,0.00,,,0.00,0,weatherlink.com 1.10,2013-08-03 09:02:00,
2013-08-03 05:17:00,68.6,66.0,29.93,SSW,212,0.0,0.0,90,0.00,,,0.00,0,weatherlink.com 1.10,2013-08-03 09:17:00,
2013-08-03 05:32:00,68.3,65.0,29.93,SSW,212,0.0,0.0,90,0.00,,,0.00,0,weatherlink.com 1.10,2013-08-03 09:32:00,
2013-08-03 05:47:00,68.1,65.0,29.94,SSW,212,0.0,0.0,91,0.00,,,0.00,0,weatherlink.com 1.10,2013-08-03 09:47:00,
2013-08-03 06:02:00,68.0,66.0,29.94,SSW,212,0.0,0.0,92,0.00,,,0.00,0,weatherlink.com 1.10,2013-08-03 10:02:00,
2013-08-03 06:17:00,67.9,66.0,29.94,SSW,212,0.0,0.0,92,0.00,,,0.00,0,weatherlink.com 1.10,2013-08-03 10:17:00,
2013-08-03 06:32:00,67.9,66.0,29.94,SSW,212,0.0,0.0,92,0.00,,,0.00,0,weatherlink.com 1.10,2013-08-03 10:32:00,
2013-08-03 06:48:00,67.9,66.0,29.94,SSW,212,0.0,0.0,92,0.00,,,0.00,0,weatherlink.com 1.10,2013-08-03 10:48:00,
2013-08-03 07:03:00,67.8,66.0,29.94,SSW,212,0.0,0.0,92,0.00,,,0.00,0,weatherlink.com 1.10,2013-08-03 11:03:00,
2013-08-03 07:18:00,67.9,66.0,29.95,SSW,212,0.0,0.0,92,0.00,,,0.00,0,weatherlink.com 1.10,2013-08-03 11:18:00,
2013-08-03 07:33:00,68.0,66.0,29.95,West,268,0.0,0.0,92,0.00,,,0.00,11,weatherlink.com 1.10,2013-08-03 11:33:00,
2013-08-03 07:48:00,68.0,65.0,29.95,SSW,212,0.0,0.0,91,0.00,,,0.00,12,weatherlink.com 1.10,2013-08-03 11:48:00,
2013-08-03 08:03:00,68.2,66.0,29.95,SSW,205,0.0,0.0,91,0.00,,,0.00,40,weatherlink.com 1.10,2013-08-03 12:03:00,
2013-08-03 08:18:00,68.6,66.0,29.94,SSW,210,0.0,0.0,91,0.00,,,0.00,104,weatherlink.com 1.10,2013-08-03 12:18:00,
2013-08-03 08:33:00,69.2,67.0,29.94,SSW,210,0.0,0.0,91,0.00,,,0.00,109,weatherlink.com 1.10,2013-08-03 12:33:00,
2013-08-03 08:48:00,69.9,67.0,29.95,South,185,0.0,0.0,90,0.00,,,0.00,214,weatherlink.com 1.10,2013-08-03 12:48:00,
2013-08-03 09:03:00,71.1,68.0,29.95,SSW,201,0.0,0.0,89,0.00,,,0.00,246,weatherlink.com 1.10,2013-08-03 13:03:00,
2013-08-03 09:18:00,71.9,68.0,29.94,WSW,253,0.0,0.0,88,0.00,,,0.00,418,weatherlink.com 1.10,2013-08-03 13:18:00,
2013-08-03 09:33:00,73.1,69.0,29.94,WSW,253,0.0,0.0,86,0.00,,,0.00,299,weatherlink.com 1.10,2013-08-03 13:33:00,
2013-08-03 09:48:00,74.1,69.0,29.94,WSW,254,0.0,0.0,85,0.00,,,0.00,406,weatherlink.com 1.10,2013-08-03 13:48:00,
2013-08-03 10:03:00,74.2,69.0,29.94,SSW,204,0.0,0.0,84,0.00,,,0.00,406,weatherlink.com 1.10,2013-08-03 14:03:00,
2013-08-03 10:18:00,74.7,70.0,29.95,SW,236,0.0,0.0,85,0.00,,,0.00,269,weatherlink.com 1.10,2013-08-03 14:18:00,
2013-08-03 10:33:00,74.7,70.0,29.96,WSW,251,0.0,0.0,85,0.00,,,0.00,438,weatherlink.com 1.10,2013-08-03 14:33:00,
2013-08-03 10:48:00,75.3,70.0,29.96,WNW,284,0.0,0.0,84,0.00,,,0.00,292,weatherlink.com 1.10,2013-08-03 14:48:00,
2013-08-03 11:03:00,75.3,70.0,29.96,SW,216,0.0,0.0,83,0.00,,,0.00,394,weatherlink.com 1.10,2013-08-03 15:03:00,
2013-08-03 11:18:00,75.4,70.0,29.96,SW,223,0.0,0.0,84,0.00,,,0.00,784,weatherlink.com 1.10,2013-08-03 15:18:00,
2013-08-03 11:33:00,76.1,71.0,29.97,WSW,238,0.0,0.0,84,0.00,,,0.00,682,weatherlink.com 1.10,2013-08-03 15:33:00,
2013-08-03 11:48:00,76.9,70.0,29.97,SW,228,0.0,0.0,79,0.00,,,0.00,708,weatherlink.com 1.10,2013-08-03 15:48:00,
2013-08-03 12:03:00,77.9,71.0,29.97,West,275,0.0,0.0,78,0.00,,,0.00,740,weatherlink.com 1.10,2013-08-03 16:03:00,
2013-08-03 12:18:00,78.2,70.0,29.97,West,266,0.0,0.0,75,0.00,,,0.00,837,weatherlink.com 1.10,2013-08-03 16:18:00,
2013-08-03 12:33:00,78.9,70.0,29.98,West,261,0.0,0.0,75,0.00,,,0.00,195,weatherlink.com 1.10,2013-08-03 16:33:00,
2013-08-03 12:48:00,79.8,71.0,29.98,NNE,23,0.0,0.0,75,0.00,,,0.00,327,weatherlink.com 1.10,2013-08-03 16:48:00,
2013-08-03 13:03:00,80.7,71.0,29.98,WSW,251,0.0,0.0,73,0.00,,,0.00,1093,weatherlink.com 1.10,2013-08-03 17:03:00,
2013-08-03 13:19:00,79.9,71.0,29.98,WNW,298,0.0,0.0,75,0.00,,,0.00,998,weatherlink.com 1.10,2013-08-03 17:19:00,
2013-08-03 13:33:00,80.9,72.0,29.98,SW,229,0.0,0.0,75,0.00,,,0.00,984,weatherlink.com 1.10,2013-08-03 17:33:00,
2013-08-03 13:49:00,81.5,72.0,29.98,NNW,344,0.0,0.0,73,0.00,,,0.00,345,weatherlink.com 1.10,2013-08-03 17:49:00,
2013-08-03 14:04:00,80.8,71.0,29.97,NW,315,0.0,0.0,71,0.00,,,0.00,1011,weatherlink.com 1.10,2013-08-03 18:04:00,
2013-08-03 14:19:00,81.2,73.0,29.98,WSW,250,0.0,0.0,77,0.00,,,0.00,1088,weatherlink.com 1.10,2013-08-03 18:19:00,
2013-08-03 14:33:00,81.1,71.0,29.98,East,90,0.0,0.0,72,0.00,,,0.00,192,weatherlink.com 1.10,2013-08-03 18:33:00,
2013-08-03 14:49:00,80.5,71.0,29.97,NNW,338,0.0,0.0,73,0.00,,,0.00,287,weatherlink.com 1.10,2013-08-03 18:49:00,
2013-08-03 15:03:00,80.5,72.0,29.97,SW,231,0.0,0.0,74,0.00,,,0.00,1034,weatherlink.com 1.10,2013-08-03 19:03:00,
2013-08-03 15:19:00,80.6,72.0,29.98,NNW,331,0.0,0.0,74,0.00,,,0.00,1020,weatherlink.com 1.10,2013-08-03 19:19:00,
2013-08-03 15:34:00,81.1,73.0,29.98,ENE,58,0.0,0.0,75,0.00,,,0.00,840,weatherlink.com 1.10,2013-08-03 19:34:00,
2013-08-03 15:49:00,79.8,72.0,29.98,NE,47,0.0,0.0,76,0.00,,,0.00,253,weatherlink.com 1.10,2013-08-03 19:49:00,
2013-08-03 16:04:00,79.4,71.0,29.97,NNW,337,0.0,0.0,76,0.00,,,0.00,888,weatherlink.com 1.10,2013-08-03 20:04:00,
2013-08-03 16:19:00,80.7,70.0,29.98,NE,35,0.0,0.0,69,0.00,,,0.00,846,weatherlink.com 1.10,2013-08-03 20:19:00,
2013-08-03 16:34:00,81.5,70.0,29.98,NW,321,0.0,0.0,67,0.00,,,0.00,179,weatherlink.com 1.10,2013-08-03 20:34:00,
2013-08-03 16:49:00,81.9,69.0,29.98,NW,319,0.0,0.0,64,0.00,,,0.00,552,weatherlink.com 1.10,2013-08-03 20:49:00,
2013-08-03 17:04:00,82.7,69.0,29.98,NW,311,0.0,0.0,63,0.00,,,0.00,747,weatherlink.com 1.10,2013-08-03 21:04:00,
2013-08-03 17:19:00,83.0,71.0,29.98,NNW,334,0.0,0.0,67,0.00,,,0.00,791,weatherlink.com 1.10,2013-08-03 21:19:00,
2013-08-03 17:34:00,80.7,69.0,29.98,NE,56,0.0,0.0,68,0.00,,,0.00,708,weatherlink.com 1.10,2013-08-03 21:34:00,
2013-08-03 17:49:00,81.2,70.0,29.97,North,11,0.0,0.0,68,0.00,,,0.00,585,weatherlink.com 1.10,2013-08-03 21:49:00,
2013-08-03 18:04:00,81.8,71.0,29.97,NE,43,0.0,0.0,69,0.00,,,0.00,504,weatherlink.com 1.10,2013-08-03 22:04:00,
2013-08-03 18:19:00,81.2,69.0,29.97,NNE,14,0.0,0.0,66,0.00,,,0.00,443,weatherlink.com 1.10,2013-08-03 22:19:00,
2013-08-03 18:34:00,80.7,69.0,29.97,NE,51,0.0,0.0,67,0.00,,,0.00,388,weatherlink.com 1.10,2013-08-03 22:34:00,
2013-08-03 18:49:00,80.2,68.0,29.97,NW,326,0.0,0.0,67,0.00,,,0.00,334,weatherlink.com 1.10,2013-08-03 22:49:00,
2013-08-03 19:04:00,80.7,69.0,29.97,NW,304,0.0,0.0,67,0.00,,,0.00,288,weatherlink.com 1.10,2013-08-03 23:04:00,
2013-08-03 19:19:00,80.7,69.0,29.97,North,355,0.0,0.0,67,0.00,,,0.00,234,weatherlink.com 1.10,2013-08-03 23:19:00,
2013-08-03 19:34:00,79.9,68.0,29.97,NNE,25,0.0,0.0,68,0.00,,,0.00,181,weatherlink.com 1.10,2013-08-03 23:34:00,
2013-08-03 19:49:00,79.3,67.0,29.97,NNE,25,0.0,0.0,66,0.00,,,0.00,35,weatherlink.com 1.10,2013-08-03 23:49:00,
2013-08-03 20:04:00,77.2,66.0,29.98,NNE,25,0.0,0.0,69,0.00,,,0.00,28,weatherlink.com 1.10,2013-08-04 00:04:00,
2013-08-03 20:19:00,75.1,66.0,29.98,NNE,25,0.0,0.0,73,0.00,,,0.00,23,weatherlink.com 1.10,2013-08-04 00:19:00,
2013-08-03 20:34:00,73.6,66.0,29.98,NNE,25,0.0,0.0,78,0.00,,,0.00,16,weatherlink.com 1.10,2013-08-04 00:34:00,
2013-08-03 20:49:00,72.4,66.0,29.98,NNE,25,0.0,0.0,81,0.00,,,0.00,7,weatherlink.com 1.10,2013-08-04 00:49:00,
2013-08-03 21:04:00,71.3,66.0,29.98,NNE,25,0.0,0.0,82,0.00,,,0.00,0,weatherlink.com 1.10,2013-08-04 01:04:00,
2013-08-03 21:19:00,70.3,65.0,29.99,NNE,25,0.0,0.0,83,0.00,,,0.00,0,weatherlink.com 1.10,2013-08-04 01:19:00,
2013-08-03 21:34:00,69.3,65.0,29.99,NNE,25,0.0,0.0,85,0.00,,,0.00,0,weatherlink.com 1.10,2013-08-04 01:34:00,
2013-08-03 21:49:00,68.5,65.0,30.00,NNE,25,0.0,0.0,87,0.00,,,0.00,0,weatherlink.com 1.10,2013-08-04 01:49:00,
2013-08-03 22:04:00,68.1,65.0,30.01,NNE,25,0.0,0.0,89,0.00,,,0.00,0,weatherlink.com 1.10,2013-08-04 02:04:00,
2013-08-03 22:19:00,67.5,65.0,30.02,NNE,25,0.0,0.0,90,0.00,,,0.00,0,weatherlink.com 1.10,2013-08-04 02:19:00,
2013-08-03 22:34:00,67.0,64.0,30.03,ENE,57,0.0,0.0,91,0.00,,,0.00,0,weatherlink.com 1.10,2013-08-04 02:34:00,
2013-08-03 22:49:00,66.4,64.0,30.03,NE,55,0.0,0.0,90,0.00,,,0.00,0,weatherlink.com 1.10,2013-08-04 02:49:00,
2013-08-03 23:04:00,65.9,62.0,30.04,North,355,0.0,0.0,87,0.00,,,0.00,0,weatherlink.com 1.10,2013-08-04 03:04:00,
2013-08-03 23:19:00,65.8,62.0,30.04,North,355,0.0,0.0,86,0.00,,,0.00,0,weatherlink.com 1.10,2013-08-04 03:19:00,
2013-08-03 23:34:00,65.4,61.0,30.04,NNW,331,0.0,0.0,85,0.00,,,0.00,0,weatherlink.com 1.10,2013-08-04 03:34:00,
2013-08-03 23:49:00,64.9,60.0,30.04,NNW,331,0.0,0.0,85,0.00,,,0.00,0,weatherlink.com 1.10,2013-08-04 03:49:00,